sensor_id;sensor_type;location;lat;lon;timestamp;pressure;altitude;pressure_sealevel;temperature;humidity
75740;BME280;64357;51.344;6.550;2024-01-10T00:02:19;102531.63;;;-4.45;72.31
75740;BME280;64357;51.344;6.550;2024-01-10T00:04:45;102529.75;;;-4.46;71.93
75740;BME280;64357;51.344;6.550;2024-01-10T00:07:10;102532.91;;;-4.47;72.38
75740;BME280;64357;51.344;6.550;2024-01-10T00:09:35;102522.44;;;-4.54;71.49
75740;BME280;64357;51.344;6.550;2024-01-10T00:12:01;102529.75;;;-4.46;71.43
75740;BME280;64357;51.344;6.550;2024-01-10T00:14:26;102522.38;;;-4.50;71.28
75740;BME280;64357;51.344;6.550;2024-01-10T00:16:52;102515.56;;;-4.51;70.34
75740;BME280;64357;51.344;6.550;2024-01-10T00:19:17;102522.28;;;-4.46;70.89
75740;BME280;64357;51.344;6.550;2024-01-10T00:21:43;102516.38;;;-4.46;71.29
75740;BME280;64357;51.344;6.550;2024-01-10T00:24:10;102518.88;;;-4.46;70.61
75740;BME280;64357;51.344;6.550;2024-01-10T00:26:36;102519.88;;;-4.50;70.22
75740;BME280;64357;51.344;6.550;2024-01-10T00:29:01;102490.69;;;-4.55;70.76
75740;BME280;64357;51.344;6.550;2024-01-10T00:31:27;102520.38;;;-4.43;69.47
75740;BME280;64357;51.344;6.550;2024-01-10T00:33:52;102505.13;;;-4.44;68.74
75740;BME280;64357;51.344;6.550;2024-01-10T00:36:17;102505.13;;;-4.44;68.29
75740;BME280;64357;51.344;6.550;2024-01-10T00:38:43;102512.44;;;-4.36;68.01
75740;BME280;64357;51.344;6.550;2024-01-10T00:41:08;102513.09;;;-4.37;66.74
75740;BME280;64357;51.344;6.550;2024-01-10T00:43:33;102504.03;;;-4.37;66.80
75740;BME280;64357;51.344;6.550;2024-01-10T00:45:59;102494.78;;;-4.42;66.70
75740;BME280;64357;51.344;6.550;2024-01-10T00:48:26;102501.91;;;-4.39;67.44
75740;BME280;64357;51.344;6.550;2024-01-10T00:50:52;102504.41;;;-4.39;66.86
75740;BME280;64357;51.344;6.550;2024-01-10T00:53:17;102502.84;;;-4.39;67.82
75740;BME280;64357;51.344;6.550;2024-01-10T00:55:42;102481.25;;;-4.52;68.18
75740;BME280;64357;51.344;6.550;2024-01-10T00:58:08;102494.94;;;-4.50;67.46
75740;BME280;64357;51.344;6.550;2024-01-10T01:00:33;102499.41;;;-4.39;67.19
75740;BME280;64357;51.344;6.550;2024-01-10T01:03:01;102494.78;;;-4.42;67.41
75740;BME280;64357;51.344;6.550;2024-01-10T01:05:26;102489.78;;;-4.42;66.79
75740;BME280;64357;51.344;6.550;2024-01-10T01:07:51;102489.84;;;-4.46;67.03
75740;BME280;64357;51.344;6.550;2024-01-10T01:10:17;102488.22;;;-4.41;66.52
75740;BME280;64357;51.344;6.550;2024-01-10T01:12:42;102484.78;;;-4.42;66.05
75740;BME280;64357;51.344;6.550;2024-01-10T01:15:08;102487.22;;;-4.38;66.12
75740;BME280;64357;51.344;6.550;2024-01-10T01:17:33;102486.56;;;-4.37;65.90
75740;BME280;64357;51.344;6.550;2024-01-10T01:19:59;102495.34;;;-4.39;64.46
75740;BME280;64357;51.344;6.550;2024-01-10T01:22:24;102485.28;;;-4.35;64.95
75740;BME280;64357;51.344;6.550;2024-01-10T01:24:50;102483.16;;;-4.37;64.07
75740;BME280;64357;51.344;6.550;2024-01-10T01:27:15;102477.16;;;-4.34;63.92
75740;BME280;64357;51.344;6.550;2024-01-10T01:29:40;102491.84;;;-4.35;64.16
75740;BME280;64357;51.344;6.550;2024-01-10T01:32:06;102480.09;;;-4.40;63.28
75740;BME280;64357;51.344;6.550;2024-01-10T01:34:31;102490.91;;;-4.36;64.11
75740;BME280;64357;51.344;6.550;2024-01-10T01:36:59;102493.34;;;-4.32;63.44
75740;BME280;64357;51.344;6.550;2024-01-10T01:39:28;102489.25;;;-4.31;64.05
75740;BME280;64357;51.344;6.550;2024-01-10T01:41:58;102474.91;;;-4.46;63.66
75740;BME280;64357;51.344;6.550;2024-01-10T01:44:26;102474.81;;;-4.42;64.01
75740;BME280;64357;51.344;6.550;2024-01-10T01:46:51;102479.28;;;-4.45;64.15
75740;BME280;64357;51.344;6.550;2024-01-10T01:49:16;102484.47;;;-4.39;64.27
75740;BME280;64357;51.344;6.550;2024-01-10T01:51:42;102472.78;;;-4.48;64.49
75740;BME280;64357;51.344;6.550;2024-01-10T01:54:08;102479.63;;;-4.47;65.34
75740;BME280;64357;51.344;6.550;2024-01-10T01:56:36;102468.72;;;-4.48;65.21
75740;BME280;64357;51.344;6.550;2024-01-10T01:59:02;102473.34;;;-4.45;65.67
75740;BME280;64357;51.344;6.550;2024-01-10T02:01:27;102471.78;;;-4.45;65.24
75740;BME280;64357;51.344;6.550;2024-01-10T02:03:56;102473.34;;;-4.45;65.62
75740;BME280;64357;51.344;6.550;2024-01-10T02:06:23;102473.56;;;-4.58;65.65
75740;BME280;64357;51.344;6.550;2024-01-10T02:08:51;102467.59;;;-4.54;65.37
75740;BME280;64357;51.344;6.550;2024-01-10T02:11:17;102471.94;;;-4.53;65.79
75740;BME280;64357;51.344;6.550;2024-01-10T02:13:43;102457.78;;;-4.62;66.28
75740;BME280;64357;51.344;6.550;2024-01-10T02:16:11;102469.16;;;-4.54;66.07
75740;BME280;64357;51.344;6.550;2024-01-10T02:18:40;102469.81;;;-4.56;66.48
75740;BME280;64357;51.344;6.550;2024-01-10T02:21:05;102472.38;;;-4.60;66.82
75740;BME280;64357;51.344;6.550;2024-01-10T02:23:30;102460.19;;;-4.58;66.44
75740;BME280;64357;51.344;6.550;2024-01-10T02:25:58;102467.78;;;-4.62;67.05
75740;BME280;64357;51.344;6.550;2024-01-10T02:28:24;102459.09;;;-4.82;67.85
75740;BME280;64357;51.344;6.550;2024-01-10T02:30:52;102474.19;;;-4.72;68.93
75740;BME280;64357;51.344;6.550;2024-01-10T02:33:19;102461.44;;;-4.74;69.34
75740;BME280;64357;51.344;6.550;2024-01-10T02:35:44;102457.72;;;-4.76;69.93
75740;BME280;64357;51.344;6.550;2024-01-10T02:38:10;102459.94;;;-4.77;69.95
75740;BME280;64357;51.344;6.550;2024-01-10T02:40:35;102460.94;;;-4.81;70.06
75740;BME280;64357;51.344;6.550;2024-01-10T02:43:00;102458.81;;;-4.84;69.86
75740;BME280;64357;51.344;6.550;2024-01-10T02:45:26;102442.75;;;-4.90;69.57
75740;BME280;64357;51.344;6.550;2024-01-10T02:47:51;102452.78;;;-4.94;69.98
75740;BME280;64357;51.344;6.550;2024-01-10T02:50:19;102460.13;;;-4.86;71.76
75740;BME280;64357;51.344;6.550;2024-01-10T02:52:44;102427.53;;;-5.09;72.48
75740;BME280;64357;51.344;6.550;2024-01-10T02:55:09;102452.78;;;-4.94;73.53
75740;BME280;64357;51.344;6.550;2024-01-10T02:57:35;102463.13;;;-4.96;72.92
75740;BME280;64357;51.344;6.550;2024-01-10T03:00:00;102439.19;;;-5.00;73.08
75740;BME280;64357;51.344;6.550;2024-01-10T03:02:25;102428.53;;;-5.13;74.74
75740;BME280;64357;51.344;6.550;2024-01-10T03:04:56;102441.84;;;-5.08;75.14
75740;BME280;64357;51.344;6.550;2024-01-10T03:07:26;102450.72;;;-5.00;75.28
75740;BME280;64357;51.344;6.550;2024-01-10T03:09:51;102442.31;;;-5.01;75.04
75740;BME280;64357;51.344;6.550;2024-01-10T03:12:19;102432.22;;;-5.11;75.21
75740;BME280;64357;51.344;6.550;2024-01-10T03:14:44;102437.13;;;-5.06;76.16
75740;BME280;64357;51.344;6.550;2024-01-10T03:17:12;102443.91;;;-5.01;75.75
75740;BME280;64357;51.344;6.550;2024-01-10T03:19:37;102441.13;;;-5.03;75.82
75740;BME280;64357;51.344;6.550;2024-01-10T03:22:07;102412.16;;;-5.20;76.71
75740;BME280;64357;51.344;6.550;2024-01-10T03:24:33;102434.50;;;-5.16;78.06
75740;BME280;64357;51.344;6.550;2024-01-10T03:26:58;102418.41;;;-5.22;78.32
75740;BME280;64357;51.344;6.550;2024-01-10T03:29:26;102440.44;;;-5.16;78.51
75740;BME280;64357;51.344;6.550;2024-01-10T03:31:53;102432.38;;;-5.19;78.56
75740;BME280;64357;51.344;6.550;2024-01-10T03:34:21;102430.75;;;-5.14;78.41
75740;BME280;64357;51.344;6.550;2024-01-10T03:36:46;102436.66;;;-5.14;79.14
75740;BME280;64357;51.344;6.550;2024-01-10T03:39:12;102424.69;;;-5.24;79.83
75740;BME280;64357;51.344;6.550;2024-01-10T03:41:39;102422.84;;;-5.25;80.39
75740;BME280;64357;51.344;6.550;2024-01-10T03:44:04;102413.75;;;-5.39;80.77
75740;BME280;64357;51.344;6.550;2024-01-10T03:46:30;102424.84;;;-5.32;81.36
75740;BME280;64357;51.344;6.550;2024-01-10T03:48:55;102422.69;;;-5.35;81.62
75740;BME280;64357;51.344;6.550;2024-01-10T03:51:23;102429.19;;;-5.31;81.21
75740;BME280;64357;51.344;6.550;2024-01-10T03:53:51;102430.16;;;-5.35;81.68
75740;BME280;64357;51.344;6.550;2024-01-10T03:56:19;102430.38;;;-5.29;81.80
75740;BME280;64357;51.344;6.550;2024-01-10T03:58:47;102428.69;;;-5.39;81.63
75740;BME280;64357;51.344;6.550;2024-01-10T04:01:15;102427.34;;;-5.32;81.09
75740;BME280;64357;51.344;6.550;2024-01-10T04:03:41;102435.63;;;-5.28;80.42
75740;BME280;64357;51.344;6.550;2024-01-10T04:06:07;102431.94;;;-5.30;79.71
75740;BME280;64357;51.344;6.550;2024-01-10T04:08:32;102432.59;;;-5.31;79.61
75740;BME280;64357;51.344;6.550;2024-01-10T04:11:00;102423.56;;;-5.30;79.09
75740;BME280;64357;51.344;6.550;2024-01-10T04:13:26;102430.38;;;-5.29;79.63
75740;BME280;64357;51.344;6.550;2024-01-10T04:15:54;102423.00;;;-5.33;79.75
75740;BME280;64357;51.344;6.550;2024-01-10T04:18:22;102420.50;;;-5.33;79.33
75740;BME280;64357;51.344;6.550;2024-01-10T04:20:49;102431.03;;;-5.30;79.50
75740;BME280;64357;51.344;6.550;2024-01-10T04:23:14;102423.63;;;-5.34;79.47
75740;BME280;64357;51.344;6.550;2024-01-10T04:25:39;102426.75;;;-5.36;79.66
75740;BME280;64357;51.344;6.550;2024-01-10T04:28:05;102423.63;;;-5.34;80.27
75740;BME280;64357;51.344;6.550;2024-01-10T04:30:31;102416.03;;;-5.44;80.56
75740;BME280;64357;51.344;6.550;2024-01-10T04:32:56;102400.38;;;-5.57;81.57
75740;BME280;64357;51.344;6.550;2024-01-10T04:35:21;102408.88;;;-5.47;81.55
75740;BME280;64357;51.344;6.550;2024-01-10T04:37:47;102419.50;;;-5.48;81.67
75740;BME280;64357;51.344;6.550;2024-01-10T04:40:12;102408.63;;;-5.48;81.58
75740;BME280;64357;51.344;6.550;2024-01-10T04:42:40;102415.81;;;-5.50;82.04
75740;BME280;64357;51.344;6.550;2024-01-10T04:45:05;102419.44;;;-5.44;81.61
75740;BME280;64357;51.344;6.550;2024-01-10T04:47:33;102392.91;;;-5.57;81.42
75740;BME280;64357;51.344;6.550;2024-01-10T04:49:58;102417.88;;;-5.43;81.67
75740;BME280;64357;51.344;6.550;2024-01-10T04:52:24;102404.22;;;-5.45;81.13
75740;BME280;64357;51.344;6.550;2024-01-10T04:54:52;102402.72;;;-5.49;82.68
75740;BME280;64357;51.344;6.550;2024-01-10T04:57:17;102396.53;;;-5.51;83.08
75740;BME280;64357;51.344;6.550;2024-01-10T04:59:42;102396.59;;;-5.55;83.31
75740;BME280;64357;51.344;6.550;2024-01-10T05:02:08;102391.72;;;-5.63;83.72
75740;BME280;64357;51.344;6.550;2024-01-10T05:04:35;102400.38;;;-5.57;83.78
75740;BME280;64357;51.344;6.550;2024-01-10T05:07:03;102410.88;;;-5.54;83.26
75740;BME280;64357;51.344;6.550;2024-01-10T05:09:30;102399.72;;;-5.56;83.37
75740;BME280;64357;51.344;6.550;2024-01-10T05:11:55;102409.31;;;-5.53;83.58
75740;BME280;64357;51.344;6.550;2024-01-10T05:14:23;102395.47;;;-5.61;84.68
75740;BME280;64357;51.344;6.550;2024-01-10T05:16:51;102395.50;;;-5.65;84.72
75740;BME280;64357;51.344;6.550;2024-01-10T05:19:19;102392.09;;;-5.66;83.79
75740;BME280;64357;51.344;6.550;2024-01-10T05:21:47;102409.69;;;-5.56;84.35
75740;BME280;64357;51.344;6.550;2024-01-10T05:24:12;102398.88;;;-5.60;84.95
75740;BME280;64357;51.344;6.550;2024-01-10T05:26:37;102402.91;;;-5.61;84.99
75740;BME280;64357;51.344;6.550;2024-01-10T05:29:05;102398.66;;;-5.66;85.04
75740;BME280;64357;51.344;6.550;2024-01-10T05:31:31;102399.19;;;-5.63;84.44
75740;BME280;64357;51.344;6.550;2024-01-10T05:33:58;102405.41;;;-5.61;84.70
75740;BME280;64357;51.344;6.550;2024-01-10T05:36:24;102408.03;;;-5.51;84.56
75740;BME280;64357;51.344;6.550;2024-01-10T05:38:49;102393.59;;;-5.62;84.17
75740;BME280;64357;51.344;6.550;2024-01-10T05:41:17;102402.88;;;-5.57;84.48
75740;BME280;64357;51.344;6.550;2024-01-10T05:43:42;102410.88;;;-5.54;83.91
75740;BME280;64357;51.344;6.550;2024-01-10T05:46:09;102402.56;;;-5.58;84.80
75740;BME280;64357;51.344;6.550;2024-01-10T05:48:35;102426.63;;;-5.45;84.41
75740;BME280;64357;51.344;6.550;2024-01-10T05:51:01;102397.16;;;-5.52;84.16
75740;BME280;64357;51.344;6.550;2024-01-10T05:53:26;102396.22;;;-5.52;83.94
75740;BME280;64357;51.344;6.550;2024-01-10T05:55:51;102406.50;;;-5.51;84.15
75740;BME280;64357;51.344;6.550;2024-01-10T05:58:17;102405.91;;;-5.54;84.55
75740;BME280;64357;51.344;6.550;2024-01-10T06:00:42;102386.41;;;-5.60;84.64
75740;BME280;64357;51.344;6.550;2024-01-10T06:03:07;102414.50;;;-5.48;84.77
75740;BME280;64357;51.344;6.550;2024-01-10T06:05:33;102399.03;;;-5.51;84.21
75740;BME280;64357;51.344;6.550;2024-01-10T06:08:00;102400.88;;;-5.50;84.57
75740;BME280;64357;51.344;6.550;2024-01-10T06:10:29;102404.56;;;-5.48;84.53
75740;BME280;64357;51.344;6.550;2024-01-10T06:12:54;102399.63;;;-5.52;84.74
75740;BME280;64357;51.344;6.550;2024-01-10T06:15:20;102405.47;;;-5.47;85.04
75740;BME280;64357;51.344;6.550;2024-01-10T06:17:53;102410.41;;;-5.43;84.85
75740;BME280;64357;51.344;6.550;2024-01-10T06:20:19;102406.34;;;-5.43;85.08
75740;BME280;64357;51.344;6.550;2024-01-10T06:22:47;102410.41;;;-5.43;84.86
75740;BME280;64357;51.344;6.550;2024-01-10T06:25:13;102396.75;;;-5.45;85.01
75740;BME280;64357;51.344;6.550;2024-01-10T06:27:40;102410.66;;;-5.42;84.86
75740;BME280;64357;51.344;6.550;2024-01-10T06:30:09;102408.19;;;-5.42;85.30
75740;BME280;64357;51.344;6.550;2024-01-10T06:32:36;102408.56;;;-5.44;84.95
75740;BME280;64357;51.344;6.550;2024-01-10T06:35:02;102403.56;;;-5.44;85.02
75740;BME280;64357;51.344;6.550;2024-01-10T06:37:29;102404.78;;;-5.42;84.84
75740;BME280;64357;51.344;6.550;2024-01-10T06:39:55;102418.41;;;-5.40;85.25
75740;BME280;64357;51.344;6.550;2024-01-10T06:42:20;102408.88;;;-5.47;84.80
75740;BME280;64357;51.344;6.550;2024-01-10T06:44:47;102413.44;;;-5.40;84.33
75740;BME280;64357;51.344;6.550;2024-01-10T06:47:15;102402.66;;;-5.45;84.35
75740;BME280;64357;51.344;6.550;2024-01-10T06:49:40;102403.56;;;-5.44;84.80
75740;BME280;64357;51.344;6.550;2024-01-10T06:52:05;102400.78;;;-5.46;84.70
75740;BME280;64357;51.344;6.550;2024-01-10T06:54:35;102399.84;;;-5.46;84.08
75740;BME280;64357;51.344;6.550;2024-01-10T06:57:00;102402.34;;;-5.46;84.02
75740;BME280;64357;51.344;6.550;2024-01-10T06:59:28;102405.19;;;-5.49;84.25
75740;BME280;64357;51.344;6.550;2024-01-10T07:01:53;102405.13;;;-5.45;84.15
75740;BME280;64357;51.344;6.550;2024-01-10T07:04:21;102406.06;;;-5.44;84.34
75740;BME280;64357;51.344;6.550;2024-01-10T07:06:50;102404.63;;;-5.34;83.94
75740;BME280;64357;51.344;6.550;2024-01-10T07:09:15;102404.00;;;-5.33;83.35
75740;BME280;64357;51.344;6.550;2024-01-10T07:11:48;102404.63;;;-5.34;83.91
75740;BME280;64357;51.344;6.550;2024-01-10T07:14:17;102403.47;;;-5.40;84.52
75740;BME280;64357;51.344;6.550;2024-01-10T07:16:42;102405.13;;;-5.45;84.28
75740;BME280;64357;51.344;6.550;2024-01-10T07:19:13;102405.69;;;-5.42;84.54
75740;BME280;64357;51.344;6.550;2024-01-10T07:21:43;102404.22;;;-5.45;83.87
75740;BME280;64357;51.344;6.550;2024-01-10T07:24:09;102403.56;;;-5.44;84.69
75740;BME280;64357;51.344;6.550;2024-01-10T07:26:36;102398.66;;;-5.48;84.39
75740;BME280;64357;51.344;6.550;2024-01-10T07:29:04;102396.22;;;-5.52;84.54
75740;BME280;64357;51.344;6.550;2024-01-10T07:31:29;102405.75;;;-5.46;84.74
75740;BME280;64357;51.344;6.550;2024-01-10T07:33:57;102395.69;;;-5.55;84.74
75740;BME280;64357;51.344;6.550;2024-01-10T07:36:26;102397.72;;;-5.49;84.89
75740;BME280;64357;51.344;6.550;2024-01-10T07:38:52;102386.06;;;-5.58;85.12
75740;BME280;64357;51.344;6.550;2024-01-10T07:41:20;102398.06;;;-5.51;85.53
75740;BME280;64357;51.344;6.550;2024-01-10T07:43:45;102396.16;;;-5.48;85.08
75740;BME280;64357;51.344;6.550;2024-01-10T07:46:11;102391.63;;;-5.55;84.65
75740;BME280;64357;51.344;6.550;2024-01-10T07:48:36;102397.31;;;-5.42;83.76
75740;BME280;64357;51.344;6.550;2024-01-10T07:51:03;102389.28;;;-5.45;84.08
75740;BME280;64357;51.344;6.550;2024-01-10T07:53:31;102398.22;;;-5.42;84.53
75740;BME280;64357;51.344;6.550;2024-01-10T07:55:59;102391.41;;;-5.43;84.20
75740;BME280;64357;51.344;6.550;2024-01-10T07:58:24;102393.81;;;-5.39;84.20
75740;BME280;64357;51.344;6.550;2024-01-10T08:00:50;102398.44;;;-5.36;84.29
75740;BME280;64357;51.344;6.550;2024-01-10T08:03:19;102386.03;;;-5.40;84.50
75740;BME280;64357;51.344;6.550;2024-01-10T08:05:44;102388.41;;;-5.32;84.17
75740;BME280;64357;51.344;6.550;2024-01-10T08:08:10;102406.78;;;-5.31;83.88
75740;BME280;64357;51.344;6.550;2024-01-10T08:10:38;102403.84;;;-5.25;83.50
75740;BME280;64357;51.344;6.550;2024-01-10T08:13:03;102410.03;;;-5.23;83.47
75740;BME280;64357;51.344;6.550;2024-01-10T08:15:29;102419.28;;;-5.18;83.90
75740;BME280;64357;51.344;6.550;2024-01-10T08:17:58;102416.78;;;-5.18;83.73
75740;BME280;64357;51.344;6.550;2024-01-10T08:20:23;102411.81;;;-5.18;83.39
75740;BME280;64357;51.344;6.550;2024-01-10T08:22:48;102407.53;;;-5.23;83.67
75740;BME280;64357;51.344;6.550;2024-01-10T08:25:14;102404.97;;;-5.19;83.17
75740;BME280;64357;51.344;6.550;2024-01-10T08:27:41;102408.88;;;-5.11;83.01
75740;BME280;64357;51.344;6.550;2024-01-10T08:30:07;102417.63;;;-5.13;83.06
75740;BME280;64357;51.344;6.550;2024-01-10T08:32:35;102420.69;;;-5.10;82.82
75740;BME280;64357;51.344;6.550;2024-01-10T08:35:03;102417.38;;;-5.15;83.33
75740;BME280;64357;51.344;6.550;2024-01-10T08:37:34;102412.59;;;-5.09;83.28
75740;BME280;64357;51.344;6.550;2024-01-10T08:39:59;102406.09;;;-5.13;83.20
75740;BME280;64357;51.344;6.550;2024-01-10T08:42:26;102414.38;;;-5.04;82.72
75740;BME280;64357;51.344;6.550;2024-01-10T08:44:56;102416.22;;;-5.03;82.03
75740;BME280;64357;51.344;6.550;2024-01-10T08:47:26;102416.09;;;-4.99;82.21
75740;BME280;64357;51.344;6.550;2024-01-10T08:49:52;102415.06;;;-4.91;81.86
75740;BME280;64357;51.344;6.550;2024-01-10T08:52:17;102427.72;;;-4.86;81.37
75740;BME280;64357;51.344;6.550;2024-01-10T08:54:46;102422.63;;;-4.82;81.80
75740;BME280;64357;51.344;6.550;2024-01-10T08:57:11;102428.03;;;-4.70;81.20
75740;BME280;64357;51.344;6.550;2024-01-10T08:59:44;102399.28;;;-4.82;80.85
75740;BME280;64357;51.344;6.550;2024-01-10T09:02:09;102435.91;;;-4.59;80.70
75740;BME280;64357;51.344;6.550;2024-01-10T09:04:35;102426.78;;;-4.54;80.63
75740;BME280;64357;51.344;6.550;2024-01-10T09:07:01;102437.59;;;-4.50;80.79
75740;BME280;64357;51.344;6.550;2024-01-10T09:09:29;102410.31;;;-4.58;80.42
75740;BME280;64357;51.344;6.550;2024-01-10T09:11:54;102431.50;;;-4.42;80.85
75740;BME280;64357;51.344;6.550;2024-01-10T09:14:21;102431.13;;;-4.40;80.96
75740;BME280;64357;51.344;6.550;2024-01-10T09:16:47;102430.59;;;-4.29;80.41
75740;BME280;64357;51.344;6.550;2024-01-10T09:19:14;102430.25;;;-4.26;79.85
75740;BME280;64357;51.344;6.550;2024-01-10T09:21:45;102440.41;;;-4.21;80.25
75740;BME280;64357;51.344;6.550;2024-01-10T09:24:11;102442.44;;;-4.14;80.31
75740;BME280;64357;51.344;6.550;2024-01-10T09:26:39;102429.78;;;-4.20;79.72
75740;BME280;64357;51.344;6.550;2024-01-10T09:29:06;102438.84;;;-4.07;79.55
75740;BME280;64357;51.344;6.550;2024-01-10T09:31:31;102428.66;;;-4.12;79.88
75740;BME280;64357;51.344;6.550;2024-01-10T09:33:59;102444.66;;;-4.02;79.72
75740;BME280;64357;51.344;6.550;2024-01-10T09:36:31;102448.81;;;-3.93;79.38
75740;BME280;64357;51.344;6.550;2024-01-10T09:38:58;102429.78;;;-3.92;79.62
75740;BME280;64357;51.344;6.550;2024-01-10T09:41:32;102434.97;;;-3.87;78.78
75740;BME280;64357;51.344;6.550;2024-01-10T09:44:03;102447.16;;;-3.74;78.85
75740;BME280;64357;51.344;6.550;2024-01-10T09:46:32;102426.72;;;-3.82;77.79
75740;BME280;64357;51.344;6.550;2024-01-10T09:49:00;102433.47;;;-3.77;77.81
75740;BME280;64357;51.344;6.550;2024-01-10T09:51:28;102432.34;;;-3.69;78.21
75740;BME280;64357;51.344;6.550;2024-01-10T09:53:58;102446.56;;;-3.64;77.44
75740;BME280;64357;51.344;6.550;2024-01-10T09:56:27;102442.22;;;-3.65;77.61
75740;BME280;64357;51.344;6.550;2024-01-10T09:58:53;102443.91;;;-3.56;77.32
75740;BME280;64357;51.344;6.550;2024-01-10T10:01:20;102437.66;;;-3.44;77.49
75740;BME280;64357;51.344;6.550;2024-01-10T10:03:49;102426.81;;;-3.35;75.91
75740;BME280;64357;51.344;6.550;2024-01-10T10:06:18;102432.28;;;-3.28;75.07
75740;BME280;64357;51.344;6.550;2024-01-10T10:08:43;102436.88;;;-3.25;75.37
75740;BME280;64357;51.344;6.550;2024-01-10T10:11:14;102426.38;;;-3.18;74.63
75740;BME280;64357;51.344;6.550;2024-01-10T10:13:42;102417.16;;;-3.24;74.09
75740;BME280;64357;51.344;6.550;2024-01-10T10:16:08;102438.19;;;-3.04;73.64
75740;BME280;64357;51.344;6.550;2024-01-10T10:18:39;102439.16;;;-2.93;73.21
75740;BME280;64357;51.344;6.550;2024-01-10T10:21:14;102434.28;;;-2.98;71.54
75740;BME280;64357;51.344;6.550;2024-01-10T10:23:42;102441.66;;;-2.93;71.82
75740;BME280;64357;51.344;6.550;2024-01-10T10:26:17;102442.09;;;-2.86;71.33
75740;BME280;64357;51.344;6.550;2024-01-10T10:28:50;102434.59;;;-2.86;71.31
75740;BME280;64357;51.344;6.550;2024-01-10T10:31:19;102451.22;;;-2.77;70.38
75740;BME280;64357;51.344;6.550;2024-01-10T10:33:46;102443.50;;;-2.69;70.83
75740;BME280;64357;51.344;6.550;2024-01-10T10:36:13;102448.94;;;-2.62;68.50
75740;BME280;64357;51.344;6.550;2024-01-10T10:38:41;102439.78;;;-2.71;69.35
75740;BME280;64357;51.344;6.550;2024-01-10T10:41:07;102444.69;;;-2.67;69.21
75740;BME280;64357;51.344;6.550;2024-01-10T10:43:37;102430.34;;;-2.68;68.22
75740;BME280;64357;51.344;6.550;2024-01-10T10:46:07;102435.91;;;-2.55;68.32
75740;BME280;64357;51.344;6.550;2024-01-10T10:48:35;102429.38;;;-2.45;69.24
75740;BME280;64357;51.344;6.550;2024-01-10T10:51:09;102438.59;;;-2.40;67.88
75740;BME280;64357;51.344;6.550;2024-01-10T10:53:36;102440.81;;;-2.42;66.61
75740;BME280;64357;51.344;6.550;2024-01-10T10:56:06;102434.41;;;-2.26;67.99
75740;BME280;64357;51.344;6.550;2024-01-10T10:58:37;102439.16;;;-2.18;67.15
75740;BME280;64357;51.344;6.550;2024-01-10T11:01:04;102425.88;;;-2.12;66.17
75740;BME280;64357;51.344;6.550;2024-01-10T11:03:31;102432.47;;;-2.13;65.46
75740;BME280;64357;51.344;6.550;2024-01-10T11:06:02;102425.66;;;-2.04;66.03
75740;BME280;64357;51.344;6.550;2024-01-10T11:08:32;102431.16;;;-2.01;65.51
75740;BME280;64357;51.344;6.550;2024-01-10T11:10:59;102423.91;;;-2.09;64.68
75740;BME280;64357;51.344;6.550;2024-01-10T11:13:27;102426.81;;;-2.02;64.47
75740;BME280;64357;51.344;6.550;2024-01-10T11:24:18;102410.50;;;-1.81;63.46
75740;BME280;64357;51.344;6.550;2024-01-10T11:26:45;102416.41;;;-1.71;62.41
75740;BME280;64357;51.344;6.550;2024-01-10T11:29:15;102419.06;;;-1.75;60.85
75740;BME280;64357;51.344;6.550;2024-01-10T11:31:50;102415.09;;;-1.40;60.29
75740;BME280;64357;51.344;6.550;2024-01-10T11:34:22;102401.09;;;-0.89;58.56
75740;BME280;64357;51.344;6.550;2024-01-10T11:37:11;102420.56;;;0.63;54.11
75740;BME280;64357;51.344;6.550;2024-01-10T11:39:37;102410.41;;;1.51;50.51
75740;BME280;64357;51.344;6.550;2024-01-10T11:42:08;102398.38;;;1.39;48.38
75740;BME280;64357;51.344;6.550;2024-01-10T11:44:34;102418.06;;;1.83;47.70
75740;BME280;64357;51.344;6.550;2024-01-10T11:47:16;102357.34;;;1.34;46.81
75740;BME280;64357;51.344;6.550;2024-01-10T11:50:13;102404.53;;;2.09;46.96
75740;BME280;64357;51.344;6.550;2024-01-10T11:53:00;102395.25;;;2.25;46.28
75740;BME280;64357;51.344;6.550;2024-01-10T11:55:50;102367.47;;;2.19;45.15
75740;BME280;64357;51.344;6.550;2024-01-10T11:58:19;102394.63;;;2.75;44.74
75740;BME280;64357;51.344;6.550;2024-01-10T12:00:46;102368.66;;;2.64;44.23
75740;BME280;64357;51.344;6.550;2024-01-10T12:03:15;102344.25;;;2.43;44.01
75740;BME280;64357;51.344;6.550;2024-01-10T12:05:42;102371.81;;;1.62;46.03
75740;BME280;64357;51.344;6.550;2024-01-10T12:08:12;102390.28;;;1.09;48.07
75740;BME280;64357;51.344;6.550;2024-01-10T12:13:46;102363.53;;;0.37;49.83
75740;BME280;64357;51.344;6.550;2024-01-10T12:16:17;102331.97;;;0.18;49.87
75740;BME280;64357;51.344;6.550;2024-01-10T12:18:45;102341.91;;;-0.18;51.23
75740;BME280;64357;51.344;6.550;2024-01-10T12:21:15;102352.44;;;-0.30;53.04
75740;BME280;64357;51.344;6.550;2024-01-10T12:23:44;102358.22;;;-0.25;51.81
75740;BME280;64357;51.344;6.550;2024-01-10T12:26:32;102335.53;;;-0.31;52.41
75740;BME280;64357;51.344;6.550;2024-01-10T12:28:59;102397.28;;;-0.37;52.79
75740;BME280;64357;51.344;6.550;2024-01-10T12:31:38;102330.66;;;-0.50;52.94
75740;BME280;64357;51.344;6.550;2024-01-10T12:34:11;102380.53;;;-0.42;53.92
75740;BME280;64357;51.344;6.550;2024-01-10T12:36:39;102337.78;;;-0.73;54.32
75740;BME280;64357;51.344;6.550;2024-01-10T12:39:05;102327.06;;;-0.47;53.04
75740;BME280;64357;51.344;6.550;2024-01-10T12:41:35;102338.66;;;-0.47;52.91
75740;BME280;64357;51.344;6.550;2024-01-10T12:44:02;102361.00;;;-0.49;53.50
75740;BME280;64357;51.344;6.550;2024-01-10T12:46:29;102343.41;;;-0.39;53.68
75740;BME280;64357;51.344;6.550;2024-01-10T12:51:31;102363.34;;;-0.20;53.25
75740;BME280;64357;51.344;6.550;2024-01-10T12:54:02;102380.63;;;-0.12;53.15
75740;BME280;64357;51.344;6.550;2024-01-10T12:56:34;102375.75;;;-0.16;53.09
75740;BME280;64357;51.344;6.550;2024-01-10T12:59:02;102370.00;;;-0.30;53.19
75740;BME280;64357;51.344;6.550;2024-01-10T13:01:29;102371.97;;;-0.23;52.99
75740;BME280;64357;51.344;6.550;2024-01-10T13:04:05;102374.72;;;-0.22;52.66
75740;BME280;64357;51.344;6.550;2024-01-10T13:06:31;102376.63;;;-0.31;53.63